sensor_id;sensor_type;location;lat;lon;timestamp;temperature;humidity
9847;DHT22;68671;50.084;8.794;2023-04-24T00:15:13;15.30;99.90
9847;DHT22;68671;50.084;8.794;2023-04-24T00:18:34;15.30;99.90
9847;DHT22;68671;50.084;8.794;2023-04-24T00:21:48;15.30;99.90
9847;DHT22;68671;50.084;8.794;2023-04-24T00:25:12;15.20;99.90
9847;DHT22;68671;50.084;8.794;2023-04-24T00:31:39;15.00;99.90
9847;DHT22;68671;50.084;8.794;2023-04-24T00:34:07;15.00;99.90
9847;DHT22;68671;50.084;8.794;2023-04-24T00:36:40;14.90;99.90
9847;DHT22;68671;50.084;8.794;2023-04-24T00:39:57;14.90;99.90
9847;DHT22;68671;50.084;8.794;2023-04-24T00:43:18;14.90;99.90
9847;DHT22;68671;50.084;8.794;2023-04-24T00:46:32;14.80;99.90
9847;DHT22;68671;50.084;8.794;2023-04-24T00:49:36;14.90;99.90
9847;DHT22;68671;50.084;8.794;2023-04-24T00:55:18;14.70;99.90
9847;DHT22;68671;50.084;8.794;2023-04-24T00:58:31;14.70;99.90
9847;DHT22;68671;50.084;8.794;2023-04-24T01:01:10;14.80;99.90
9847;DHT22;68671;50.084;8.794;2023-04-24T01:07:18;14.60;99.90
9847;DHT22;68671;50.084;8.794;2023-04-24T01:10:11;14.60;99.90
9847;DHT22;68671;50.084;8.794;2023-04-24T01:13:15;14.60;99.90
9847;DHT22;68671;50.084;8.794;2023-04-24T01:16:29;14.50;99.90
9847;DHT22;68671;50.084;8.794;2023-04-24T01:19:22;14.60;99.90
9847;DHT22;68671;50.084;8.794;2023-04-24T01:22:22;14.50;99.90
9847;DHT22;68671;50.084;8.794;2023-04-24T01:25:16;14.60;99.90
9847;DHT22;68671;50.084;8.794;2023-04-24T01:38:24;14.40;99.90
9847;DHT22;68671;50.084;8.794;2023-04-24T01:44:55;14.30;99.90
9847;DHT22;68671;50.084;8.794;2023-04-24T01:48:12;14.20;99.90
9847;DHT22;68671;50.084;8.794;2023-04-24T02:38:36;13.90;99.90
9847;DHT22;68671;50.084;8.794;2023-04-24T02:41:30;13.80;99.90
9847;DHT22;68671;50.084;8.794;2023-04-24T02:48:37;13.90;99.90
9847;DHT22;68671;50.084;8.794;2023-04-24T02:59:10;13.90;99.90
9847;DHT22;68671;50.084;8.794;2023-04-24T03:01:57;14.00;99.90
9847;DHT22;68671;50.084;8.794;2023-04-24T03:04:39;14.00;99.90
9847;DHT22;68671;50.084;8.794;2023-04-24T03:07:28;14.10;99.90
9847;DHT22;68671;50.084;8.794;2023-04-24T03:13:00;14.10;99.90
9847;DHT22;68671;50.084;8.794;2023-04-24T03:15:50;14.10;99.90
9847;DHT22;68671;50.084;8.794;2023-04-24T03:19:08;14.10;99.90
9847;DHT22;68671;50.084;8.794;2023-04-24T03:22:03;14.00;99.90
9847;DHT22;68671;50.084;8.794;2023-04-24T03:33:56;14.00;99.90
9847;DHT22;68671;50.084;8.794;2023-04-24T03:39:26;14.00;99.90
9847;DHT22;68671;50.084;8.794;2023-04-24T03:48:26;14.10;99.90
9847;DHT22;68671;50.084;8.794;2023-04-24T03:51:25;14.10;99.90
9847;DHT22;68671;50.084;8.794;2023-04-24T03:56:43;14.10;99.90
9847;DHT22;68671;50.084;8.794;2023-04-24T03:59:11;14.10;99.90
9847;DHT22;68671;50.084;8.794;2023-04-24T04:01:41;14.20;99.90
9847;DHT22;68671;50.084;8.794;2023-04-24T04:04:15;14.20;99.90
9847;DHT22;68671;50.084;8.794;2023-04-24T04:06:46;14.20;99.90
9847;DHT22;68671;50.084;8.794;2023-04-24T04:09:13;14.20;99.90
9847;DHT22;68671;50.084;8.794;2023-04-24T04:11:43;14.10;99.90
9847;DHT22;68671;50.084;8.794;2023-04-24T04:14:15;14.20;99.90
9847;DHT22;68671;50.084;8.794;2023-04-24T04:16:42;14.20;99.90
9847;DHT22;68671;50.084;8.794;2023-04-24T04:19:08;14.10;99.90
9847;DHT22;68671;50.084;8.794;2023-04-24T04:21:35;14.20;99.90
9847;DHT22;68671;50.084;8.794;2023-04-24T04:24:04;14.20;99.90
9847;DHT22;68671;50.084;8.794;2023-04-24T04:26:32;14.20;99.90
9847;DHT22;68671;50.084;8.794;2023-04-24T04:29:00;14.10;99.90
9847;DHT22;68671;50.084;8.794;2023-04-24T04:31:29;14.10;99.90
9847;DHT22;68671;50.084;8.794;2023-04-24T06:04:07;14.30;99.90
9847;DHT22;68671;50.084;8.794;2023-04-24T06:06:35;14.40;99.90
9847;DHT22;68671;50.084;8.794;2023-04-24T06:09:02;14.30;99.90
9847;DHT22;68671;50.084;8.794;2023-04-24T06:11:30;14.30;99.90
9847;DHT22;68671;50.084;8.794;2023-04-24T06:13:57;14.30;99.90
9847;DHT22;68671;50.084;8.794;2023-04-24T06:16:24;14.30;99.90
9847;DHT22;68671;50.084;8.794;2023-04-24T06:18:51;14.20;99.90
9847;DHT22;68671;50.084;8.794;2023-04-24T06:21:20;14.20;99.90
9847;DHT22;68671;50.084;8.794;2023-04-24T06:23:47;14.30;99.90
9847;DHT22;68671;50.084;8.794;2023-04-24T06:26:15;14.20;99.90
9847;DHT22;68671;50.084;8.794;2023-04-24T06:28:42;14.20;99.90
9847;DHT22;68671;50.084;8.794;2023-04-24T06:31:09;14.20;99.90
9847;DHT22;68671;50.084;8.794;2023-04-24T06:33:36;14.20;99.90
9847;DHT22;68671;50.084;8.794;2023-04-24T06:36:03;14.20;99.90
9847;DHT22;68671;50.084;8.794;2023-04-24T06:38:32;14.20;99.90
9847;DHT22;68671;50.084;8.794;2023-04-24T06:40:59;14.10;99.90
9847;DHT22;68671;50.084;8.794;2023-04-24T06:43:26;14.10;99.90
9847;DHT22;68671;50.084;8.794;2023-04-24T06:45:53;14.20;99.90
9847;DHT22;68671;50.084;8.794;2023-04-24T06:48:20;14.30;99.90
9847;DHT22;68671;50.084;8.794;2023-04-24T06:50:47;14.30;99.90
9847;DHT22;68671;50.084;8.794;2023-04-24T06:53:14;14.30;99.90
9847;DHT22;68671;50.084;8.794;2023-04-24T06:55:42;14.40;99.90
9847;DHT22;68671;50.084;8.794;2023-04-24T06:58:10;14.40;99.90
9847;DHT22;68671;50.084;8.794;2023-04-24T07:00:37;14.50;99.90
9847;DHT22;68671;50.084;8.794;2023-04-24T07:03:04;14.50;99.90
9847;DHT22;68671;50.084;8.794;2023-04-24T07:05:31;14.60;99.90
9847;DHT22;68671;50.084;8.794;2023-04-24T07:08:00;14.50;99.90
9847;DHT22;68671;50.084;8.794;2023-04-24T07:10:27;14.50;99.90
9847;DHT22;68671;50.084;8.794;2023-04-24T07:12:56;14.40;99.90
9847;DHT22;68671;50.084;8.794;2023-04-24T07:15:23;14.30;99.90
9847;DHT22;68671;50.084;8.794;2023-04-24T07:17:50;14.30;99.90
9847;DHT22;68671;50.084;8.794;2023-04-24T07:20:17;14.30;99.90
9847;DHT22;68671;50.084;8.794;2023-04-24T07:22:44;14.30;99.90
9847;DHT22;68671;50.084;8.794;2023-04-24T07:25:11;14.30;99.90
9847;DHT22;68671;50.084;8.794;2023-04-24T07:27:38;14.20;99.90
9847;DHT22;68671;50.084;8.794;2023-04-24T07:30:07;14.30;99.90
9847;DHT22;68671;50.084;8.794;2023-04-24T07:32:34;14.30;99.90
9847;DHT22;68671;50.084;8.794;2023-04-24T07:35:01;14.30;99.90
9847;DHT22;68671;50.084;8.794;2023-04-24T07:37:29;14.30;99.90
9847;DHT22;68671;50.084;8.794;2023-04-24T07:39:56;14.20;99.90
9847;DHT22;68671;50.084;8.794;2023-04-24T07:42:22;14.20;99.90
9847;DHT22;68671;50.084;8.794;2023-04-24T07:44:49;14.20;99.90
9847;DHT22;68671;50.084;8.794;2023-04-24T07:47:18;14.10;99.90
9847;DHT22;68671;50.084;8.794;2023-04-24T07:49:45;14.10;99.90
9847;DHT22;68671;50.084;8.794;2023-04-24T07:52:11;14.00;99.90
9847;DHT22;68671;50.084;8.794;2023-04-24T07:54:38;14.00;99.90
9847;DHT22;68671;50.084;8.794;2023-04-24T07:57:05;13.90;99.90
9847;DHT22;68671;50.084;8.794;2023-04-24T07:59:33;14.00;99.90
9847;DHT22;68671;50.084;8.794;2023-04-24T08:02:00;14.10;99.90
9847;DHT22;68671;50.084;8.794;2023-04-24T08:04:29;14.20;99.90
9847;DHT22;68671;50.084;8.794;2023-04-24T08:06:56;14.20;99.90
9847;DHT22;68671;50.084;8.794;2023-04-24T08:09:23;14.10;99.90
9847;DHT22;68671;50.084;8.794;2023-04-24T08:11:50;14.10;99.90
9847;DHT22;68671;50.084;8.794;2023-04-24T08:14:17;14.20;99.90
9847;DHT22;68671;50.084;8.794;2023-04-24T08:16:44;14.10;99.90
9847;DHT22;68671;50.084;8.794;2023-04-24T08:19:11;14.10;99.90
9847;DHT22;68671;50.084;8.794;2023-04-24T08:21:39;14.10;99.90
9847;DHT22;68671;50.084;8.794;2023-04-24T08:24:06;14.10;99.90
9847;DHT22;68671;50.084;8.794;2023-04-24T08:26:34;14.10;99.90
9847;DHT22;68671;50.084;8.794;2023-04-24T08:29:00;14.10;99.90
9847;DHT22;68671;50.084;8.794;2023-04-24T08:31:27;14.00;99.90
9847;DHT22;68671;50.084;8.794;2023-04-24T08:33:55;13.90;99.90
9847;DHT22;68671;50.084;8.794;2023-04-24T08:36:21;13.80;99.90
9847;DHT22;68671;50.084;8.794;2023-04-24T08:38:50;13.80;99.90
9847;DHT22;68671;50.084;8.794;2023-04-24T08:41:18;13.80;99.90
9847;DHT22;68671;50.084;8.794;2023-04-24T08:43:46;13.80;99.90
9847;DHT22;68671;50.084;8.794;2023-04-24T08:46:14;13.90;99.90
9847;DHT22;68671;50.084;8.794;2023-04-24T08:48:42;13.80;99.90
9847;DHT22;68671;50.084;8.794;2023-04-24T08:51:09;13.80;99.90
9847;DHT22;68671;50.084;8.794;2023-04-24T08:53:37;13.70;99.90
9847;DHT22;68671;50.084;8.794;2023-04-24T08:56:06;13.70;99.90
9847;DHT22;68671;50.084;8.794;2023-04-24T08:58:33;13.70;99.90
9847;DHT22;68671;50.084;8.794;2023-04-24T09:01:02;13.60;99.90
9847;DHT22;68671;50.084;8.794;2023-04-24T09:03:30;13.60;99.90
9847;DHT22;68671;50.084;8.794;2023-04-24T09:05:58;13.60;99.90
9847;DHT22;68671;50.084;8.794;2023-04-24T09:08:26;13.70;99.90
9847;DHT22;68671;50.084;8.794;2023-04-24T09:10:53;13.70;99.90
9847;DHT22;68671;50.084;8.794;2023-04-24T09:13:21;13.80;99.90
9847;DHT22;68671;50.084;8.794;2023-04-24T09:15:48;13.90;99.90
9847;DHT22;68671;50.084;8.794;2023-04-24T09:18:16;13.90;99.90
9847;DHT22;68671;50.084;8.794;2023-04-24T09:21:00;14.00;99.90
9847;DHT22;68671;50.084;8.794;2023-04-24T09:23:27;14.10;99.90
9847;DHT22;68671;50.084;8.794;2023-04-24T09:25:55;14.10;99.90
9847;DHT22;68671;50.084;8.794;2023-04-24T09:31:05;13.90;99.90
9847;DHT22;68671;50.084;8.794;2023-04-24T09:33:32;13.70;99.90
9847;DHT22;68671;50.084;8.794;2023-04-24T09:36:00;13.70;99.90
9847;DHT22;68671;50.084;8.794;2023-04-24T09:38:32;13.60;99.90
9847;DHT22;68671;50.084;8.794;2023-04-24T09:41:00;13.50;99.90
9847;DHT22;68671;50.084;8.794;2023-04-24T09:43:30;13.50;99.90
9847;DHT22;68671;50.084;8.794;2023-04-24T09:45:58;13.40;99.90
9847;DHT22;68671;50.084;8.794;2023-04-24T09:48:32;13.40;99.90
9847;DHT22;68671;50.084;8.794;2023-04-24T09:51:01;13.30;99.90
9847;DHT22;68671;50.084;8.794;2023-04-24T09:53:34;13.40;99.90
9847;DHT22;68671;50.084;8.794;2023-04-24T09:56:20;13.40;99.90
9847;DHT22;68671;50.084;8.794;2023-04-24T09:59:06;13.30;99.90
9847;DHT22;68671;50.084;8.794;2023-04-24T10:01:39;13.30;99.90
9847;DHT22;68671;50.084;8.794;2023-04-24T10:04:16;13.30;99.90
9847;DHT22;68671;50.084;8.794;2023-04-24T10:06:47;13.30;99.90
9847;DHT22;68671;50.084;8.794;2023-04-24T10:09:16;13.30;99.90
9847;DHT22;68671;50.084;8.794;2023-04-24T10:11:46;13.30;99.90
9847;DHT22;68671;50.084;8.794;2023-04-24T10:14:21;13.30;99.90
9847;DHT22;68671;50.084;8.794;2023-04-24T10:16:49;13.30;99.90
9847;DHT22;68671;50.084;8.794;2023-04-24T10:19:18;13.30;99.90
9847;DHT22;68671;50.084;8.794;2023-04-24T10:21:46;13.30;99.90
9847;DHT22;68671;50.084;8.794;2023-04-24T10:24:13;13.40;99.90
9847;DHT22;68671;50.084;8.794;2023-04-24T10:26:41;13.40;99.90
9847;DHT22;68671;50.084;8.794;2023-04-24T10:29:10;13.40;99.90
9847;DHT22;68671;50.084;8.794;2023-04-24T10:31:39;13.50;99.90
9847;DHT22;68671;50.084;8.794;2023-04-24T10:34:08;13.50;99.90
9847;DHT22;68671;50.084;8.794;2023-04-24T10:36:38;13.50;99.90
9847;DHT22;68671;50.084;8.794;2023-04-24T10:39:08;13.50;99.90
9847;DHT22;68671;50.084;8.794;2023-04-24T10:41:37;13.50;99.90
9847;DHT22;68671;50.084;8.794;2023-04-24T10:44:05;13.60;99.90
9847;DHT22;68671;50.084;8.794;2023-04-24T10:46:32;13.60;99.90
9847;DHT22;68671;50.084;8.794;2023-04-24T10:49:03;13.60;99.90
9847;DHT22;68671;50.084;8.794;2023-04-24T10:51:47;13.60;99.90
9847;DHT22;68671;50.084;8.794;2023-04-24T10:54:25;13.70;99.90
9847;DHT22;68671;50.084;8.794;2023-04-24T10:56:53;13.70;99.90
9847;DHT22;68671;50.084;8.794;2023-04-24T10:59:24;13.70;99.90
9847;DHT22;68671;50.084;8.794;2023-04-24T11:01:53;13.70;99.90
9847;DHT22;68671;50.084;8.794;2023-04-24T11:04:31;13.80;99.90
9847;DHT22;68671;50.084;8.794;2023-04-24T11:06:58;13.80;99.90
9847;DHT22;68671;50.084;8.794;2023-04-24T11:09:26;13.90;99.90
9847;DHT22;68671;50.084;8.794;2023-04-24T11:12:03;13.90;99.90
9847;DHT22;68671;50.084;8.794;2023-04-24T11:15:00;14.00;99.90
9847;DHT22;68671;50.084;8.794;2023-04-24T11:17:29;14.00;99.90
9847;DHT22;68671;50.084;8.794;2023-04-24T11:20:02;14.10;99.90
9847;DHT22;68671;50.084;8.794;2023-04-24T11:22:33;14.10;99.90
9847;DHT22;68671;50.084;8.794;2023-04-24T11:25:01;14.10;99.90
9847;DHT22;68671;50.084;8.794;2023-04-24T11:27:30;14.30;99.90
9847;DHT22;68671;50.084;8.794;2023-04-24T11:30:03;14.40;99.90
9847;DHT22;68671;50.084;8.794;2023-04-24T11:32:34;14.60;99.90
9847;DHT22;68671;50.084;8.794;2023-04-24T11:35:04;14.70;99.90
9847;DHT22;68671;50.084;8.794;2023-04-24T11:37:34;14.80;99.90
9847;DHT22;68671;50.084;8.794;2023-04-24T11:40:03;14.90;99.90
9847;DHT22;68671;50.084;8.794;2023-04-24T11:42:34;14.90;99.90
9847;DHT22;68671;50.084;8.794;2023-04-24T11:45:11;14.90;99.90
9847;DHT22;68671;50.084;8.794;2023-04-24T11:47:39;14.80;99.90
9847;DHT22;68671;50.084;8.794;2023-04-24T11:50:10;14.70;99.90
9847;DHT22;68671;50.084;8.794;2023-04-24T11:52:39;14.70;99.90
9847;DHT22;68671;50.084;8.794;2023-04-24T11:55:08;14.60;99.90
9847;DHT22;68671;50.084;8.794;2023-04-24T11:57:35;14.50;99.90
9847;DHT22;68671;50.084;8.794;2023-04-24T12:00:04;14.40;99.90
9847;DHT22;68671;50.084;8.794;2023-04-24T12:02:31;14.40;99.90
9847;DHT22;68671;50.084;8.794;2023-04-24T12:04:58;14.40;99.90
9847;DHT22;68671;50.084;8.794;2023-04-24T12:07:26;14.50;99.90
9847;DHT22;68671;50.084;8.794;2023-04-24T12:09:58;14.50;99.90
9847;DHT22;68671;50.084;8.794;2023-04-24T12:12:27;14.60;99.90
9847;DHT22;68671;50.084;8.794;2023-04-24T12:14:56;14.70;99.90
9847;DHT22;68671;50.084;8.794;2023-04-24T12:17:27;14.80;99.90
9847;DHT22;68671;50.084;8.794;2023-04-24T12:19:57;15.10;99.90
9847;DHT22;68671;50.084;8.794;2023-04-24T12:22:27;15.20;99.90
9847;DHT22;68671;50.084;8.794;2023-04-24T12:24:58;15.30;99.90
9847;DHT22;68671;50.084;8.794;2023-04-24T12:27:26;15.30;99.90
9847;DHT22;68671;50.084;8.794;2023-04-24T12:29:53;15.40;99.90
9847;DHT22;68671;50.084;8.794;2023-04-24T12:32:22;15.40;99.90
9847;DHT22;68671;50.084;8.794;2023-04-24T12:34:49;15.40;99.90
9847;DHT22;68671;50.084;8.794;2023-04-24T12:37:17;15.40;99.90
9847;DHT22;68671;50.084;8.794;2023-04-24T12:39:58;15.30;99.90
9847;DHT22;68671;50.084;8.794;2023-04-24T12:42:26;15.30;99.90
9847;DHT22;68671;50.084;8.794;2023-04-24T12:44:56;15.30;99.90
9847;DHT22;68671;50.084;8.794;2023-04-24T12:47:24;15.20;99.90
9847;DHT22;68671;50.084;8.794;2023-04-24T12:49:51;15.10;99.90
9847;DHT22;68671;50.084;8.794;2023-04-24T12:52:18;15.00;99.90
9847;DHT22;68671;50.084;8.794;2023-04-24T12:54:48;15.00;99.90
9847;DHT22;68671;50.084;8.794;2023-04-24T12:57:15;15.00;99.90
9847;DHT22;68671;50.084;8.794;2023-04-24T12:59:42;15.00;99.90
9847;DHT22;68671;50.084;8.794;2023-04-24T13:02:09;15.00;99.90
9847;DHT22;68671;50.084;8.794;2023-04-24T13:04:36;15.00;99.90
9847;DHT22;68671;50.084;8.794;2023-04-24T13:07:03;15.10;99.90
9847;DHT22;68671;50.084;8.794;2023-04-24T13:09:30;15.10;99.90
9847;DHT22;68671;50.084;8.794;2023-04-24T13:12:00;15.20;99.90
9847;DHT22;68671;50.084;8.794;2023-04-24T13:14:27;15.30;99.90
9847;DHT22;68671;50.084;8.794;2023-04-24T13:16:54;15.40;99.90
9847;DHT22;68671;50.084;8.794;2023-04-24T13:19:21;15.50;99.90
9847;DHT22;68671;50.084;8.794;2023-04-24T13:21:47;15.50;99.90
9847;DHT22;68671;50.084;8.794;2023-04-24T13:24:14;15.50;99.90
9847;DHT22;68671;50.084;8.794;2023-04-24T13:26:42;15.60;99.90
9847;DHT22;68671;50.084;8.794;2023-04-24T13:29:11;15.50;99.90
9847;DHT22;68671;50.084;8.794;2023-04-24T13:31:38;15.50;99.90
9847;DHT22;68671;50.084;8.794;2023-04-24T13:34:05;15.50;99.90
9847;DHT22;68671;50.084;8.794;2023-04-24T13:36:32;15.50;99.90
9847;DHT22;68671;50.084;8.794;2023-04-24T13:38:59;15.50;99.90
9847;DHT22;68671;50.084;8.794;2023-04-24T13:41:26;15.60;99.90
9847;DHT22;68671;50.084;8.794;2023-04-24T13:43:53;15.60;99.90
9847;DHT22;68671;50.084;8.794;2023-04-24T13:46:22;15.60;99.90
9847;DHT22;68671;50.084;8.794;2023-04-24T13:48:48;15.60;99.90
9847;DHT22;68671;50.084;8.794;2023-04-24T13:51:15;15.60;99.90
9847;DHT22;68671;50.084;8.794;2023-04-24T13:53:42;15.60;99.90
9847;DHT22;68671;50.084;8.794;2023-04-24T13:56:10;15.60;99.90
9847;DHT22;68671;50.084;8.794;2023-04-24T13:58:39;15.70;99.90
9847;DHT22;68671;50.084;8.794;2023-04-24T14:01:06;15.70;99.90
9847;DHT22;68671;50.084;8.794;2023-04-24T14:03:35;15.70;99.90
9847;DHT22;68671;50.084;8.794;2023-04-24T14:06:03;15.80;99.90
9847;DHT22;68671;50.084;8.794;2023-04-24T14:08:31;15.80;99.90
9847;DHT22;68671;50.084;8.794;2023-04-24T14:10:58;15.80;99.90
9847;DHT22;68671;50.084;8.794;2023-04-24T14:13:25;15.90;99.80
9847;DHT22;68671;50.084;8.794;2023-04-24T14:15:53;15.90;99.70
9847;DHT22;68671;50.084;8.794;2023-04-24T14:18:20;15.90;99.70
9847;DHT22;68671;50.084;8.794;2023-04-24T14:20:48;16.00;99.80
9847;DHT22;68671;50.084;8.794;2023-04-24T14:23:15;16.00;99.80
9847;DHT22;68671;50.084;8.794;2023-04-24T14:25:42;16.10;99.40
9847;DHT22;68671;50.084;8.794;2023-04-24T14:28:11;16.10;99.10
9847;DHT22;68671;50.084;8.794;2023-04-24T14:30:38;16.20;99.00
9847;DHT22;68671;50.084;8.794;2023-04-24T14:33:06;16.20;98.80
9847;DHT22;68671;50.084;8.794;2023-04-24T14:35:33;16.20;98.60
9847;DHT22;68671;50.084;8.794;2023-04-24T14:38:02;16.20;98.50
9847;DHT22;68671;50.084;8.794;2023-04-24T14:40:29;16.20;98.20
9847;DHT22;68671;50.084;8.794;2023-04-24T14:42:58;16.20;97.90
9847;DHT22;68671;50.084;8.794;2023-04-24T14:45:25;16.20;97.60
9847;DHT22;68671;50.084;8.794;2023-04-24T14:47:52;16.10;97.30
9847;DHT22;68671;50.084;8.794;2023-04-24T14:50:20;16.10;97.20
9847;DHT22;68671;50.084;8.794;2023-04-24T14:52:47;16.00;97.10
9847;DHT22;68671;50.084;8.794;2023-04-24T14:55:15;15.90;97.20
9847;DHT22;68671;50.084;8.794;2023-04-24T14:57:42;15.80;97.90
9847;DHT22;68671;50.084;8.794;2023-04-24T15:00:10;15.80;98.60
9847;DHT22;68671;50.084;8.794;2023-04-24T15:02:37;15.70;99.30
9847;DHT22;68671;50.084;8.794;2023-04-24T15:05:07;15.70;99.90
9847;DHT22;68671;50.084;8.794;2023-04-24T15:07:34;15.60;99.90
9847;DHT22;68671;50.084;8.794;2023-04-24T16:45:18;15.00;96.80
9847;DHT22;68671;50.084;8.794;2023-04-24T16:48:24;14.90;97.00
9847;DHT22;68671;50.084;8.794;2023-04-24T16:58:36;14.80;97.00
9847;DHT22;68671;50.084;8.794;2023-04-24T17:29:11;14.90;99.30
9847;DHT22;68671;50.084;8.794;2023-04-24T17:31:50;14.90;98.80
9847;DHT22;68671;50.084;8.794;2023-04-24T17:34:44;14.90;98.60
9847;DHT22;68671;50.084;8.794;2023-04-24T17:37:16;15.00;98.20
9847;DHT22;68671;50.084;8.794;2023-04-24T17:39:53;14.80;97.80
9847;DHT22;68671;50.084;8.794;2023-04-24T17:42:41;14.80;97.50
9847;DHT22;68671;50.084;8.794;2023-04-24T17:47:47;14.90;97.40
9847;DHT22;68671;50.084;8.794;2023-04-24T18:03:30;14.80;96.20
9847;DHT22;68671;50.084;8.794;2023-04-24T18:05:58;14.80;96.10
9847;DHT22;68671;50.084;8.794;2023-04-24T18:08:30;14.60;96.00
9847;DHT22;68671;50.084;8.794;2023-04-24T18:10:57;14.60;95.90
9847;DHT22;68671;50.084;8.794;2023-04-24T18:13:24;14.60;96.00
9847;DHT22;68671;50.084;8.794;2023-04-24T18:15:51;14.50;96.10
9847;DHT22;68671;50.084;8.794;2023-04-24T18:18:18;14.50;96.20
9847;DHT22;68671;50.084;8.794;2023-04-24T18:20:46;14.40;96.20
9847;DHT22;68671;50.084;8.794;2023-04-24T18:23:14;14.30;96.30
9847;DHT22;68671;50.084;8.794;2023-04-24T18:25:41;14.30;96.30
9847;DHT22;68671;50.084;8.794;2023-04-24T18:28:08;14.20;96.40
9847;DHT22;68671;50.084;8.794;2023-04-24T18:30:35;14.20;96.60
9847;DHT22;68671;50.084;8.794;2023-04-24T18:33:02;14.10;97.10
9847;DHT22;68671;50.084;8.794;2023-04-24T18:35:29;14.10;96.70
9847;DHT22;68671;50.084;8.794;2023-04-24T18:37:58;14.10;96.70
9847;DHT22;68671;50.084;8.794;2023-04-24T18:40:25;14.00;96.60
9847;DHT22;68671;50.084;8.794;2023-04-24T18:42:52;14.10;96.70
9847;DHT22;68671;50.084;8.794;2023-04-24T18:45:20;14.00;96.70
9847;DHT22;68671;50.084;8.794;2023-04-24T18:47:51;14.00;96.80
9847;DHT22;68671;50.084;8.794;2023-04-24T18:50:19;13.90;97.10
9847;DHT22;68671;50.084;8.794;2023-04-24T18:52:49;13.90;96.80
9847;DHT22;68671;50.084;8.794;2023-04-24T18:55:23;13.90;96.90
9847;DHT22;68671;50.084;8.794;2023-04-24T18:57:51;13.80;97.00
9847;DHT22;68671;50.084;8.794;2023-04-24T19:00:21;13.80;97.10
9847;DHT22;68671;50.084;8.794;2023-04-24T19:02:48;13.80;97.30
9847;DHT22;68671;50.084;8.794;2023-04-24T19:05:15;13.70;97.40
9847;DHT22;68671;50.084;8.794;2023-04-24T19:07:42;13.70;97.60
9847;DHT22;68671;50.084;8.794;2023-04-24T19:10:14;13.70;97.70
9847;DHT22;68671;50.084;8.794;2023-04-24T19:12:43;13.70;97.80
9847;DHT22;68671;50.084;8.794;2023-04-24T19:15:10;13.70;97.90
9847;DHT22;68671;50.084;8.794;2023-04-24T19:17:38;13.70;98.00
9847;DHT22;68671;50.084;8.794;2023-04-24T19:20:06;13.70;98.10
9847;DHT22;68671;50.084;8.794;2023-04-24T19:22:33;13.70;98.30
9847;DHT22;68671;50.084;8.794;2023-04-24T19:25:01;13.70;98.40
9847;DHT22;68671;50.084;8.794;2023-04-24T19:27:28;13.60;98.40
9847;DHT22;68671;50.084;8.794;2023-04-24T19:29:56;13.60;98.60
9847;DHT22;68671;50.084;8.794;2023-04-24T19:32:23;13.60;98.70
9847;DHT22;68671;50.084;8.794;2023-04-24T19:34:50;13.60;99.00
9847;DHT22;68671;50.084;8.794;2023-04-24T19:37:17;13.50;99.10
9847;DHT22;68671;50.084;8.794;2023-04-24T19:39:44;13.50;99.20
9847;DHT22;68671;50.084;8.794;2023-04-24T19:42:11;13.50;99.20
9847;DHT22;68671;50.084;8.794;2023-04-24T19:44:38;13.50;99.30
9847;DHT22;68671;50.084;8.794;2023-04-24T19:47:18;13.50;99.40
9847;DHT22;68671;50.084;8.794;2023-04-24T19:49:46;13.40;99.40
9847;DHT22;68671;50.084;8.794;2023-04-24T19:52:13;13.40;99.40
9847;DHT22;68671;50.084;8.794;2023-04-24T19:54:45;13.30;99.40
9847;DHT22;68671;50.084;8.794;2023-04-24T19:57:15;13.30;99.50
9847;DHT22;68671;50.084;8.794;2023-04-24T19:59:57;13.20;99.60
9847;DHT22;68671;50.084;8.794;2023-04-24T20:02:28;13.20;99.70
9847;DHT22;68671;50.084;8.794;2023-04-24T20:04:56;13.20;99.70
9847;DHT22;68671;50.084;8.794;2023-04-24T20:07:24;13.20;99.80
9847;DHT22;68671;50.084;8.794;2023-04-24T20:09:52;13.10;99.70
9847;DHT22;68671;50.084;8.794;2023-04-24T20:12:19;13.10;99.60
9847;DHT22;68671;50.084;8.794;2023-04-24T20:14:59;13.00;99.60
9847;DHT22;68671;50.084;8.794;2023-04-24T20:17:28;13.00;99.60
9847;DHT22;68671;50.084;8.794;2023-04-24T20:19:55;13.00;99.60
9847;DHT22;68671;50.084;8.794;2023-04-24T20:22:22;12.90;99.60
9847;DHT22;68671;50.084;8.794;2023-04-24T20:24:49;12.90;99.60
9847;DHT22;68671;50.084;8.794;2023-04-24T20:27:16;12.90;99.50
9847;DHT22;68671;50.084;8.794;2023-04-24T20:29:46;12.80;99.50
9847;DHT22;68671;50.084;8.794;2023-04-24T20:32:15;12.80;99.40
9847;DHT22;68671;50.084;8.794;2023-04-24T20:34:43;12.70;99.40
9847;DHT22;68671;50.084;8.794;2023-04-24T20:37:18;12.70;99.40
9847;DHT22;68671;50.084;8.794;2023-04-24T20:40:20;12.70;99.50
9847;DHT22;68671;50.084;8.794;2023-04-24T20:42:48;12.60;99.60
9847;DHT22;68671;50.084;8.794;2023-04-24T20:45:15;12.60;99.70
9847;DHT22;68671;50.084;8.794;2023-04-24T20:47:43;12.50;99.70
9847;DHT22;68671;50.084;8.794;2023-04-24T20:50:11;12.50;99.80
9847;DHT22;68671;50.084;8.794;2023-04-24T20:52:38;12.50;99.90
9847;DHT22;68671;50.084;8.794;2023-04-24T20:55:06;12.40;99.90
9847;DHT22;68671;50.084;8.794;2023-04-24T20:57:33;12.40;99.90
9847;DHT22;68671;50.084;8.794;2023-04-24T21:00:00;12.40;99.90
9847;DHT22;68671;50.084;8.794;2023-04-24T21:02:32;12.40;99.90
9847;DHT22;68671;50.084;8.794;2023-04-24T21:04:59;12.50;99.90
9847;DHT22;68671;50.084;8.794;2023-04-24T21:07:28;12.40;99.90
9847;DHT22;68671;50.084;8.794;2023-04-24T21:09:55;12.40;99.90
9847;DHT22;68671;50.084;8.794;2023-04-24T21:12:22;12.40;99.90
9847;DHT22;68671;50.084;8.794;2023-04-24T21:14:49;12.40;99.90
9847;DHT22;68671;50.084;8.794;2023-04-24T21:17:16;12.40;99.90
9847;DHT22;68671;50.084;8.794;2023-04-24T21:19:43;12.30;99.90
9847;DHT22;68671;50.084;8.794;2023-04-24T21:22:12;12.40;99.90
9847;DHT22;68671;50.084;8.794;2023-04-24T21:24:40;12.30;99.90
9847;DHT22;68671;50.084;8.794;2023-04-24T21:27:07;12.40;99.90
9847;DHT22;68671;50.084;8.794;2023-04-24T21:29:37;12.30;99.90
9847;DHT22;68671;50.084;8.794;2023-04-24T21:32:04;12.30;99.90
9847;DHT22;68671;50.084;8.794;2023-04-24T21:34:31;12.30;99.90
9847;DHT22;68671;50.084;8.794;2023-04-24T21:36:58;12.30;99.90
9847;DHT22;68671;50.084;8.794;2023-04-24T21:39:25;12.30;99.90
9847;DHT22;68671;50.084;8.794;2023-04-24T21:41:53;12.20;99.90
9847;DHT22;68671;50.084;8.794;2023-04-24T21:44:22;12.20;99.90
9847;DHT22;68671;50.084;8.794;2023-04-24T21:46:49;12.20;99.90
9847;DHT22;68671;50.084;8.794;2023-04-24T21:49:16;12.10;99.90
9847;DHT22;68671;50.084;8.794;2023-04-24T21:51:43;12.10;99.90
9847;DHT22;68671;50.084;8.794;2023-04-24T21:54:10;12.10;99.90
9847;DHT22;68671;50.084;8.794;2023-04-24T21:56:37;12.10;99.90
9847;DHT22;68671;50.084;8.794;2023-04-24T21:59:07;12.10;99.90
9847;DHT22;68671;50.084;8.794;2023-04-24T22:01:34;12.00;99.90
9847;DHT22;68671;50.084;8.794;2023-04-24T22:04:01;12.00;99.90
9847;DHT22;68671;50.084;8.794;2023-04-24T22:06:28;12.00;99.90
9847;DHT22;68671;50.084;8.794;2023-04-24T22:08:56;12.00;99.90
9847;DHT22;68671;50.084;8.794;2023-04-24T22:11:23;11.90;99.90
9847;DHT22;68671;50.084;8.794;2023-04-24T22:13:51;11.90;99.90